Weather History for Pampa / Mesa Vista, TX

Change the Weather History Date:

Friday, March 8, 2013

  Actual Average (KBGD) Record (KBGD)
Temperature  
Mean Temperature 59 °F 47 °F  
Max Temperature 68 °F 60 °F 79 °F (1977)
Min Temperature 50 °F 34 °F 8 °F (1967)
Degree Days  
Heating Degree Days 6 18  
Month to date heating degree days 152  
Since 1 July heating degree days 3145  
Cooling Degree Days 0 0  
Month to date cooling degree days 0  
Year to date cooling degree days 0  
Growing Degree Days 9 (Base 50)    
Moisture  
Dew Point 46 °F    
Average Humidity 66    
Maximum Humidity 94    
Minimum Humidity 44    
Precipitation  
Precipitation 0.07 in 0.04 in 1.40 in (1994)
Month to date precipitation 0.33  
Year to date precipitation 1.54  
Snow  
Snow 0.00 in - 9.00 in (1994)
Month to date snowfall  
Since 1 July snowfall  
Snow Depth -    
Sea Level Pressure  
Sea Level Pressure 29.87 in    
Wind  
Wind Speed 13 mph (South)    
Max Wind Speed 32 mph    
Max Gust Speed 43 mph    
Visibility 10 miles    
Events Rain    
T = Trace of Precipitation, MM = Missing Value Source: NWS Daily Summary

Daily Weather History Graph

Daily Weather History Graph

Search for Another Location

Airport:

Trip Planner

Search our weather history database for the weather conditions in past years. The results will help you decide how hot, cold, wet, or windy it might be!

Date:

Astronomy

Mar. 08, 2013 Rise Set
Actual Time 7:04 AM CST 6:45 PM CST
Civil Twilight 6:38 AM CST 7:11 PM CST
Nautical Twilight 6:09 AM CST 7:40 PM CST
Astronomical Twilight 5:39 AM CST 8:10 PM CST
Moon 4:44 AM CST (3/8) 3:47 PM CST (3/8)
Length of Visible Light 12h 32m
Length of Day
11h 41m
Waning Crescent, 11% of the Moon is Illuminated
Mar 8
Waning Crescent
Mar 11
New
Mar 19
First Quarter
Mar 27
Full
Apr 2
Last Quarter

Hourly Weather History & Observations

Time (CST) Temp. Dew Point Humidity Pressure Visibility Wind Dir Wind Speed Gust Speed Precip Events Conditions
12:15 AM 57.2 °F 35.6 °F 44% 29.96 in 10.0 mi SSW 13.8 mph 20.7 mph N/A   Clear
12:35 AM 55.4 °F 35.6 °F 47% 29.95 in 10.0 mi South 11.5 mph 18.4 mph N/A   Clear
12:55 AM 53.6 °F 35.6 °F 51% 29.96 in 10.0 mi SSW 3.5 mph - N/A   Clear
1:15 AM 53.6 °F 35.6 °F 51% 29.96 in 10.0 mi South 6.9 mph - N/A   Clear
1:35 AM 53.6 °F 35.6 °F 51% 29.95 in 10.0 mi South 6.9 mph - N/A   Clear
1:55 AM 53.6 °F 35.6 °F 51% 29.96 in 10.0 mi SSW 6.9 mph - N/A   Clear
2:15 AM 53.6 °F 35.6 °F 51% 29.96 in 10.0 mi Calm Calm - N/A   Clear
2:35 AM 53.6 °F 35.6 °F 51% 29.96 in 10.0 mi Calm Calm - N/A   Clear
2:55 AM 53.6 °F 35.6 °F 51% 29.95 in 10.0 mi South 4.6 mph - N/A   Clear
3:15 AM 53.6 °F 37.4 °F 54% 29.94 in 10.0 mi South 6.9 mph - N/A   Clear
3:35 AM 53.6 °F 37.4 °F 54% 29.93 in 10.0 mi SSW 9.2 mph - N/A   Mostly Cloudy
3:55 AM 53.6 °F 37.4 °F 54% 29.93 in 10.0 mi SSW 10.4 mph - N/A   Scattered Clouds
4:15 AM 51.8 °F 37.4 °F 58% 29.92 in 10.0 mi South 10.4 mph - N/A   Clear
4:35 AM 53.6 °F 37.4 °F 54% 29.93 in 10.0 mi SSW 11.5 mph - N/A   Clear
4:55 AM 51.8 °F 39.2 °F 62% 29.92 in 10.0 mi SSW 8.1 mph - N/A   Clear
5:15 AM 51.8 °F 39.2 °F 62% 29.92 in 10.0 mi South 6.9 mph - N/A   Clear
5:35 AM 51.8 °F 39.2 °F 62% 29.93 in 10.0 mi SSE 3.5 mph - N/A   Clear
5:55 AM 50.0 °F 39.2 °F 66% 29.92 in 10.0 mi SSE 8.1 mph - N/A   Clear
6:15 AM 50.0 °F 41.0 °F 71% 29.93 in 10.0 mi SSE 9.2 mph - N/A   Clear
6:35 AM 50.0 °F 41.0 °F 71% 29.93 in 10.0 mi South 9.2 mph - N/A   Scattered Clouds
6:55 AM 51.8 °F 41.0 °F 67% 29.93 in 10.0 mi South 11.5 mph - N/A   Clear
7:15 AM 51.8 °F 42.8 °F 71% 29.93 in 10.0 mi South 9.2 mph - N/A   Clear
7:35 AM 53.6 °F 42.8 °F 67% 29.93 in 10.0 mi South 12.7 mph 19.6 mph N/A   Scattered Clouds
7:55 AM 53.6 °F 42.8 °F 67% 29.93 in 10.0 mi SSW 12.7 mph - N/A   Scattered Clouds
8:15 AM 53.6 °F 42.8 °F 67% 29.94 in 10.0 mi SSW 9.2 mph - N/A   Mostly Cloudy
8:35 AM 53.6 °F 42.8 °F 67% 29.94 in 10.0 mi South 10.4 mph - N/A   Overcast
8:55 AM 55.4 °F 42.8 °F 63% 29.94 in 10.0 mi SSW 13.8 mph 18.4 mph N/A   Overcast
9:15 AM 57.2 °F 42.8 °F 59% 29.94 in 10.0 mi SSW 15.0 mph 19.6 mph N/A   Mostly Cloudy
9:35 AM 57.2 °F 42.8 °F 59% 29.93 in 10.0 mi South 17.3 mph 25.3 mph N/A   Scattered Clouds
9:55 AM 59.0 °F 44.6 °F 59% 29.94 in 10.0 mi SSW 13.8 mph 20.7 mph N/A   Mostly Cloudy
10:15 AM 59.0 °F 44.6 °F 59% 29.94 in 10.0 mi SSW 13.8 mph 23.0 mph N/A   Overcast
10:35 AM 59.0 °F 44.6 °F 59% 29.92 in 10.0 mi South 16.1 mph 24.2 mph N/A   Mostly Cloudy
10:55 AM 59.0 °F 44.6 °F 59% 29.92 in 10.0 mi South 12.7 mph - N/A   Mostly Cloudy
11:15 AM 60.8 °F 44.6 °F 55% 29.94 in 10.0 mi SW 9.2 mph 16.1 mph N/A   Overcast
11:35 AM 60.8 °F 44.6 °F 55% 29.92 in 10.0 mi South 15.0 mph 20.7 mph N/A   Overcast
11:55 AM 60.8 °F 44.6 °F 55% 29.92 in 10.0 mi South 13.8 mph 19.6 mph N/A   Overcast
12:15 PM 60.8 °F 44.6 °F 55% 29.91 in 10.0 mi South 8.1 mph - N/A   Overcast
12:35 PM 60.8 °F 44.6 °F 55% 29.91 in 10.0 mi SW 4.6 mph 16.1 mph N/A   Overcast
12:55 PM 60.8 °F 46.4 °F 59% 29.89 in 10.0 mi SSE 12.7 mph - N/A   Overcast
1:15 PM 60.8 °F 46.4 °F 59% 29.87 in 10.0 mi SSE 20.7 mph 25.3 mph N/A   Overcast
1:35 PM 62.6 °F 46.4 °F 55% 29.85 in 10.0 mi South 20.7 mph 25.3 mph N/A   Overcast
1:55 PM 62.6 °F 46.4 °F 55% 29.82 in 10.0 mi SSE 24.2 mph 31.1 mph N/A   Overcast
2:15 PM 66.2 °F 48.2 °F 52% 29.81 in 10.0 mi SSE 25.3 mph 32.2 mph N/A   Overcast
2:35 PM 68.0 °F 46.4 °F 46% 29.81 in 10.0 mi SSE 26.5 mph 35.7 mph N/A   Mostly Cloudy
2:55 PM 68.0 °F 50.0 °F 52% 29.81 in 10.0 mi SSE 27.6 mph 35.7 mph N/A   Scattered Clouds
3:15 PM 68.0 °F 50.0 °F 52% 29.80 in 10.0 mi SSE 29.9 mph 33.4 mph N/A   Clear
3:35 PM 68.0 °F 50.0 °F 52% 29.79 in 10.0 mi SSE 28.8 mph 38.0 mph N/A   Clear
3:55 PM 68.0 °F 50.0 °F 52% 29.79 in 10.0 mi SSE 25.3 mph 35.7 mph N/A   Scattered Clouds
4:15 PM 68.0 °F 50.0 °F 52% 29.78 in 10.0 mi SSE 29.9 mph 38.0 mph N/A   Clear
4:35 PM 68.0 °F 51.8 °F 56% 29.76 in 10.0 mi SSE 32.2 mph 38.0 mph N/A   Clear
4:55 PM 68.0 °F 51.8 °F 56% 29.76 in 10.0 mi SSE 28.8 mph 38.0 mph N/A   Clear
5:15 PM 64.4 °F 51.8 °F 64% 29.75 in 10.0 mi SSE 32.2 mph 42.6 mph N/A   Clear
5:35 PM 64.4 °F 53.6 °F 68% 29.75 in 10.0 mi SSE 26.5 mph 36.8 mph N/A   Clear
5:55 PM 62.6 °F 53.6 °F 72% 29.75 in 10.0 mi SSE 29.9 mph 40.3 mph N/A   Clear
6:15 PM 59.0 °F 53.6 °F 82% 29.76 in 10.0 mi SE 28.8 mph 34.5 mph N/A   Clear
6:35 PM 59.0 °F 53.6 °F 82% 29.77 in 10.0 mi SSE 28.8 mph 34.5 mph N/A   Clear
6:55 PM 57.2 °F 53.6 °F 88% 29.76 in 10.0 mi SE 24.2 mph 35.7 mph N/A   Clear
7:15 PM 57.2 °F 53.6 °F 88% 29.76 in 10.0 mi SSE 23.0 mph 34.5 mph N/A   Clear
7:35 PM 57.2 °F 53.6 °F 88% 29.76 in 10.0 mi SSE 25.3 mph 38.0 mph N/A   Clear
7:55 PM 57.2 °F 53.6 °F 88% 29.76 in 10.0 mi SSE 23.0 mph 34.5 mph N/A   Scattered Clouds
8:15 PM 59.0 °F 53.6 °F 82% 29.77 in 10.0 mi SSE 28.8 mph 35.7 mph N/A   Overcast
8:35 PM 57.2 °F 55.4 °F 94% 29.78 in 10.0 mi SSE 17.3 mph 32.2 mph N/A Rain Light Rain
8:55 PM 57.2 °F 55.4 °F 94% 29.79 in 5.0 mi South 21.9 mph 33.4 mph 0.04 in Rain Heavy Rain
9:15 PM 57.2 °F 55.4 °F 94% 29.80 in 5.0 mi South 18.4 mph 29.9 mph 0.02 in Rain Rain
9:35 PM 57.2 °F 55.4 °F 94% 29.80 in 10.0 mi South 21.9 mph 28.8 mph 0.03 in   Mostly Cloudy
9:55 PM 57.2 °F 55.4 °F 94% 29.79 in 10.0 mi SSE 18.4 mph 26.5 mph 0.03 in   Overcast
10:15 PM 55.4 °F 53.6 °F 94% 29.79 in 10.0 mi South 19.6 mph - N/A   Overcast
10:35 PM 55.4 °F 51.8 °F 88% 29.80 in 10.0 mi South 21.9 mph - N/A   Overcast
10:55 PM 57.2 °F 51.8 °F 82% 29.80 in 10.0 mi South 15.0 mph 19.6 mph N/A   Mostly Cloudy
11:15 PM 55.4 °F 51.8 °F 88% 29.79 in 10.0 mi South 13.8 mph - N/A   Scattered Clouds
11:35 PM 55.4 °F 53.6 °F 94% 29.79 in 10.0 mi South 13.8 mph - N/A   Mostly Cloudy
11:55 PM 55.4 °F 53.6 °F 94% 29.79 in 10.0 mi SSW 9.2 mph - N/A   Overcast